createdAt,value
2016-09-18T00:02:28.129Z,20.24
2016-09-18T00:07:24.679Z,20.22
2016-09-18T00:12:21.804Z,20.21
2016-09-18T00:17:18.866Z,20.31
2016-09-18T00:22:15.503Z,20.09
2016-09-18T00:27:12.164Z,19.96
2016-09-18T00:32:08.698Z,19.85
2016-09-18T00:37:05.272Z,19.76
2016-09-18T00:42:02.259Z,19.63
2016-09-18T00:46:58.793Z,19.56
2016-09-18T00:51:55.422Z,19.69
2016-09-18T00:56:51.806Z,19.63
2016-09-18T01:01:48.782Z,19.45
2016-09-18T01:06:45.149Z,19.08
2016-09-18T01:11:41.677Z,19.00
2016-09-18T01:16:38.348Z,19.02
2016-09-18T01:21:35.015Z,19.04
2016-09-18T01:26:31.619Z,19.00
2016-09-18T01:31:28.011Z,19.04
2016-09-18T01:36:24.676Z,19.29
2016-09-18T01:41:21.357Z,19.24
2016-09-18T01:46:17.935Z,19.40
2016-09-18T01:51:14.731Z,19.54
2016-09-18T01:56:13.818Z,19.36
2016-09-18T02:01:09.819Z,19.54
2016-09-18T02:06:06.401Z,19.40
2016-09-18T02:11:02.966Z,19.24
2016-09-18T02:16:00.038Z,19.33
2016-09-18T02:20:59.130Z,19.49
2016-09-18T02:25:55.002Z,19.40
2016-09-18T02:30:51.556Z,19.33
2016-09-18T02:35:48.724Z,19.24
2016-09-18T02:40:45.262Z,19.12
2016-09-18T02:45:44.264Z,19.19
2016-09-18T02:50:40.383Z,19.19
2016-09-18T02:55:37.059Z,19.08
2016-09-18T03:00:33.728Z,19.21
2016-09-18T03:05:30.323Z,19.22
2016-09-18T03:10:26.985Z,19.16
2016-09-18T03:15:23.479Z,19.37
2016-09-18T03:20:20.358Z,19.47
2016-09-18T03:25:17.252Z,19.59
2016-09-18T03:30:13.830Z,19.51
2016-09-18T03:35:10.683Z,19.62
2016-09-18T03:40:06.939Z,19.39
2016-09-18T03:45:03.791Z,19.41
2016-09-18T03:50:00.746Z,19.54
2016-09-18T03:54:57.706Z,19.51
2016-09-18T03:59:54.329Z,19.30
2016-09-18T04:04:50.900Z,19.44
2016-09-18T04:09:47.396Z,19.54
2016-09-18T04:14:44.015Z,19.51
2016-09-18T04:19:40.524Z,19.16
2016-09-18T04:24:37.125Z,18.99
2016-09-18T04:29:33.718Z,18.96
2016-09-18T04:34:30.257Z,19.12
2016-09-18T04:39:26.567Z,19.00
2016-09-18T04:44:23.318Z,19.09
2016-09-18T04:49:20.191Z,19.18
2016-09-18T04:54:16.706Z,19.31
2016-09-18T04:59:13.207Z,19.40
2016-09-18T05:04:10.088Z,19.37
2016-09-18T05:09:06.814Z,19.40
2016-09-18T05:14:03.543Z,19.55
2016-09-18T05:19:00.035Z,19.47
2016-09-18T05:23:56.651Z,19.40
2016-09-18T05:28:53.228Z,19.29
2016-09-18T05:33:49.600Z,19.44
2016-09-18T05:38:46.517Z,19.37
2016-09-18T05:43:43.187Z,19.16
2016-09-18T05:48:39.750Z,19.24
2016-09-18T05:53:36.228Z,19.37
2016-09-18T05:58:33.344Z,19.18
2016-09-18T06:03:29.661Z,19.16
2016-09-18T06:08:26.141Z,19.29
2016-09-18T06:13:23.177Z,19.18
2016-09-18T06:18:19.813Z,19.16
2016-09-18T06:23:16.503Z,19.12
2016-09-18T06:28:12.999Z,19.14
2016-09-18T06:33:09.827Z,19.11
2016-09-18T06:38:06.223Z,19.11
2016-09-18T06:43:03.226Z,18.98
2016-09-18T06:47:59.837Z,18.88
2016-09-18T06:52:56.330Z,18.90
2016-09-18T06:57:52.961Z,19.00
2016-09-18T07:02:49.518Z,19.14
2016-09-18T07:12:46.614Z,19.11
2016-09-18T07:17:43.011Z,19.15
2016-09-18T07:22:40.082Z,19.08
2016-09-18T07:27:37.385Z,19.08
2016-09-18T07:32:33.795Z,19.11
2016-09-18T07:37:30.418Z,18.96
2016-09-18T07:42:27.369Z,19.04
2016-09-18T07:47:23.983Z,19.16
2016-09-18T07:52:20.762Z,23.20
2016-09-18T07:57:17.670Z,21.05
2016-09-18T08:02:14.497Z,20.34
2016-09-18T08:07:11.278Z,19.99
2016-09-18T08:12:07.801Z,19.96
2016-09-18T08:17:04.603Z,20.24
2016-09-18T08:22:02.441Z,21.05
2016-09-18T08:26:59.877Z,16.66
2016-09-18T08:31:55.519Z,16.33
2016-09-18T08:36:51.614Z,16.69
2016-09-18T08:41:47.723Z,16.81
2016-09-18T08:46:44.559Z,17.02
2016-09-18T08:51:42.076Z,17.19
2016-09-18T08:56:38.816Z,17.27
2016-09-18T09:01:35.522Z,17.45
2016-09-18T09:06:32.504Z,17.31
2016-09-18T09:11:28.853Z,17.20
2016-09-18T09:16:25.587Z,16.91
2016-09-18T09:21:22.357Z,17.16
2016-09-18T09:26:18.901Z,17.15
2016-09-18T09:31:16.104Z,17.34
2016-09-18T09:36:13.445Z,17.78
2016-09-18T09:41:10.286Z,17.65
2016-09-18T09:46:07.234Z,17.85
2016-09-18T09:51:05.672Z,18.18
2016-09-18T09:56:02.175Z,18.10
2016-09-18T10:00:59.180Z,18.41
2016-09-18T10:05:55.937Z,18.15
2016-09-18T10:10:52.937Z,18.74
2016-09-18T10:15:50.380Z,19.24
2016-09-18T10:20:47.161Z,18.99
2016-09-18T10:25:44.374Z,18.71
2016-09-18T10:30:41.094Z,19.12
2016-09-18T10:35:38.487Z,19.56
2016-09-18T10:40:37.303Z,19.86
2016-09-18T10:45:37.560Z,19.89
2016-09-18T10:50:33.785Z,19.41
2016-09-18T10:55:33.247Z,20.50
2016-09-18T11:00:34.658Z,23.31
2016-09-18T11:05:37.733Z,23.17
2016-09-18T11:10:35.433Z,22.80
2016-09-18T11:15:31.479Z,20.69
2016-09-18T11:20:33.058Z,23.24
2016-09-18T11:25:31.984Z,22.48
2016-09-18T11:30:31.494Z,24.03
2016-09-18T11:35:24.748Z,22.28
2016-09-18T11:40:16.256Z,20.99
2016-09-18T11:45:12.597Z,20.96
2016-09-18T11:50:08.730Z,21.40
2016-09-18T11:55:11.824Z,24.13
2016-09-18T12:00:11.905Z,25.51
2016-09-18T12:05:03.700Z,22.78
2016-09-18T12:09:55.111Z,21.07
2016-09-18T12:14:49.680Z,20.24
2016-09-18T12:19:44.626Z,19.59
2016-09-18T12:24:45.864Z,21.62
2016-09-18T12:29:40.464Z,20.82
2016-09-18T12:34:37.446Z,20.44
2016-09-18T12:39:33.388Z,20.80
2016-09-18T12:44:29.910Z,20.97
2016-09-18T12:49:26.665Z,21.14
2016-09-18T12:54:22.726Z,20.31
2016-09-18T12:59:18.857Z,19.85
2016-09-18T13:04:15.646Z,20.06
2016-09-18T13:09:12.127Z,20.21
2016-09-18T13:14:09.474Z,20.56
2016-09-18T13:19:06.887Z,20.78
2016-09-18T13:24:03.510Z,20.69
2016-09-18T13:28:59.633Z,20.40
2016-09-18T13:33:57.322Z,20.37
2016-09-18T13:38:53.897Z,20.24
2016-09-18T13:43:50.271Z,20.03
2016-09-18T13:48:47.737Z,20.36
2016-09-18T13:53:45.188Z,20.80
2016-09-18T13:58:45.892Z,21.07
2016-09-18T14:03:42.195Z,20.82
2016-09-18T14:08:38.336Z,20.37
2016-09-18T14:13:34.749Z,20.32
2016-09-18T14:18:31.023Z,20.29
2016-09-18T14:23:27.745Z,20.51
2016-09-18T14:28:24.937Z,20.90
2016-09-18T14:33:21.885Z,20.81
2016-09-18T14:38:19.677Z,20.85
2016-09-18T14:43:16.135Z,20.52
2016-09-18T14:48:12.791Z,20.41
2016-09-18T14:53:09.423Z,20.39
2016-09-18T14:58:07.364Z,20.44
2016-09-18T15:03:03.767Z,20.36
2016-09-18T15:08:03.616Z,20.07
2016-09-18T15:12:59.447Z,20.18
2016-09-18T15:17:56.002Z,20.06
2016-09-18T15:22:58.331Z,19.84
2016-09-18T15:27:54.918Z,19.82
2016-09-18T15:32:51.481Z,19.91
2016-09-18T15:37:48.292Z,19.96
2016-09-18T15:42:45.933Z,19.88
2016-09-18T15:47:42.630Z,19.81
2016-09-18T15:52:39.661Z,19.73
2016-09-18T16:02:38.851Z,19.55
2016-09-18T16:07:36.609Z,19.58
2016-09-18T16:12:33.043Z,19.56
2016-09-18T16:17:29.643Z,19.34
2016-09-18T16:22:26.383Z,19.36
2016-09-18T16:27:23.467Z,19.27
2016-09-18T16:32:20.067Z,19.18
2016-09-18T16:37:17.490Z,19.14
2016-09-18T16:42:13.769Z,19.14
2016-09-18T16:47:10.074Z,19.12
2016-09-18T16:52:06.941Z,18.99
2016-09-18T16:57:03.680Z,18.98
2016-09-18T17:02:00.278Z,18.90
2016-09-18T17:06:56.722Z,18.89
2016-09-18T17:11:53.474Z,18.84
2016-09-18T17:16:49.876Z,18.75
2016-09-18T17:21:46.506Z,18.66
2016-09-18T17:26:42.715Z,18.56
2016-09-18T17:31:39.195Z,18.47
2016-09-18T17:36:36.475Z,18.38
2016-09-18T17:41:32.921Z,18.38
2016-09-18T17:46:29.222Z,18.26
2016-09-18T17:51:25.789Z,18.18
2016-09-18T17:56:22.274Z,18.23
2016-09-18T18:01:19.119Z,18.15
2016-09-18T18:06:18.842Z,18.11
2016-09-18T18:11:14.892Z,17.97
2016-09-18T18:16:11.936Z,17.86
2016-09-18T18:21:08.383Z,17.87
2016-09-18T18:26:04.874Z,17.78
2016-09-18T18:31:03.966Z,17.74
2016-09-18T18:35:59.927Z,17.76
2016-09-18T18:40:56.293Z,17.76
2016-09-18T18:45:53.087Z,17.74
2016-09-18T18:50:49.840Z,17.72
2016-09-18T18:55:47.712Z,17.68
2016-09-18T19:00:43.993Z,17.59
2016-09-18T19:05:40.531Z,17.56
2016-09-18T19:10:37.146Z,17.63
2016-09-18T19:15:33.522Z,17.68
2016-09-18T19:20:30.103Z,17.52
2016-09-18T19:25:26.324Z,17.52
2016-09-18T19:30:22.873Z,17.45
2016-09-18T19:35:19.927Z,17.46
2016-09-18T19:40:16.433Z,17.42
2016-09-18T19:45:13.679Z,17.41
2016-09-18T19:50:09.944Z,17.41
2016-09-18T19:55:06.533Z,17.34
2016-09-18T20:00:03.568Z,17.41
2016-09-18T20:05:00.263Z,17.42
2016-09-18T20:09:56.985Z,17.12
2016-09-18T20:14:53.357Z,17.24
2016-09-18T20:19:49.505Z,17.15
2016-09-18T20:24:47.350Z,17.11
2016-09-18T20:29:43.726Z,17.14
2016-09-18T20:34:40.273Z,17.06
2016-09-18T20:39:36.926Z,17.05
2016-09-18T20:44:33.281Z,17.04
2016-09-18T20:49:30.093Z,16.93
2016-09-18T20:54:26.577Z,16.86
2016-09-18T20:59:23.199Z,16.97
2016-09-18T21:04:19.801Z,16.76
2016-09-18T21:09:16.219Z,16.72
2016-09-18T21:14:12.801Z,16.72
2016-09-18T21:19:09.478Z,16.74
2016-09-18T21:24:05.917Z,16.69
2016-09-18T21:29:03.026Z,16.60
2016-09-18T21:34:00.012Z,16.58
2016-09-18T21:38:56.838Z,16.46
2016-09-18T21:43:53.386Z,16.58
2016-09-18T21:48:50.863Z,16.57
2016-09-18T21:53:47.043Z,16.53
2016-09-18T21:58:43.411Z,16.57
2016-09-18T22:03:40.318Z,16.49
2016-09-18T22:08:36.858Z,16.56
2016-09-18T22:13:33.704Z,16.47
2016-09-18T22:18:30.302Z,16.42
2016-09-18T22:23:26.774Z,16.31
2016-09-18T22:28:23.293Z,16.36
2016-09-18T22:33:20.425Z,16.36
2016-09-18T22:38:17.005Z,16.35
2016-09-18T22:43:13.624Z,16.39
2016-09-18T22:48:10.277Z,16.29
2016-09-18T22:53:06.693Z,16.20
2016-09-18T22:58:03.344Z,16.28
2016-09-18T23:03:01.719Z,16.23
2016-09-18T23:07:59.363Z,16.23
2016-09-18T23:12:55.939Z,16.23
2016-09-18T23:17:52.349Z,16.23
2016-09-18T23:22:49.793Z,16.36
2016-09-18T23:27:47.677Z,16.21
2016-09-18T23:32:43.870Z,16.17
2016-09-18T23:37:40.574Z,16.24
2016-09-18T23:42:37.364Z,16.16
2016-09-18T23:47:33.778Z,16.15
2016-09-18T23:52:30.396Z,16.02
2016-09-18T23:57:27.198Z,16.04
